Current | Forecast
Updated: 7:30 PM JST on June 29, 2017
Observed at Nagoya / Chubu, Japan
Temperature 75°F
Humidity 78%
Dew Point 68°F
Wind ESE at 9 mph
Pressure 29.92 in (Steady)
Conditions Partly Cloudy
Visibility 6.2 miles
UV 0 out of 16
Clouds (FEW) : 2000 ft
Yesterday's Maximum 77°F
Yesterday's Minimum 72°F approx.
Yesterday's Cooling Degree Days 9 approx.
Sunrise4:40 AM JST
Sunset7:12 PM JST
Moon Rise10:04 AM JST
Moon Set11:06 PM JST
Moon PhaseMoon Phase
Waxing Crescent
Raw METARMETAR RJGG 291030Z 12008KT 9999 FEW020 BKN/// 24/20 Q1013 NOSIG


Monday
. High: 78° F.
Tuesday
. High: 75° F.
Wednesday
. High: 75° F.
Thursday
. High: 78° F.
Friday
. High: 80° F.
Saturday
. High: 75° F.
Sunday
. High: 77° F.
Monday
. High: 80° F.

Units: English | Metric

Find the Weather for any City, State or Zipcode, or Country:

U.S. State List | Severe Weather | Tropical Storms | Ski Conditions
United States | Canada | Central America | South America | Asia | Europe | Australia | Africa | Islands

Weather Underground

© Copyright 2017
The Weather Company, LLC